Time;durP1;ratioP1;P1;durP2;ratioP2;P2;SDS_P1;SDS_P2;PMS_P1;PMS_P2;Temp;Humidity;BMP_temperature;BMP_pressure;BME280_temperature;BME280_humidity;BME280_pressure;Samples;Min_cycle;Max_cycle;Signal;HPM_P1;HPM_P2
2021/11/29 00:00:33;;;;;;;;;;;-1.10;92.40;;;;;;4845583;29;19924;-85
2021/11/29 00:03:03;;;;;;;;;;;-1.10;92.40;;;;;;4845193;29;19931;-84
2021/11/29 00:05:31;;;;;;;;;;;-1.10;92.40;;;;;;4844483;29;19924;-84
2021/11/29 00:08:00;;;;;;;;;;;-1.10;92.40;;;;;;4845317;29;19924;-85
2021/11/29 00:10:28;;;;;;;;;;;-1.10;92.40;;;;;;4845504;29;19924;-84
2021/11/29 00:12:55;;;;;;;;;;;-1.10;92.40;;;;;;4846072;29;20310;-84
2021/11/29 00:15:23;;;;;;;;;;;-1.10;92.40;;;;;;4855599;29;19924;-84
2021/11/29 00:17:50;;;;;;;;;;;-1.10;92.40;;;;;;4852489;29;19945;-84
2021/11/29 00:20:18;;;;;;;;;;;-1.10;92.40;;;;;;4844412;29;19924;-84
2021/11/29 00:22:46;;;;;;;;;;;-1.10;92.40;;;;;;4845253;29;20263;-84
2021/11/29 00:25:13;;;;;;;;;;;-1.10;92.50;;;;;;4828688;29;19932;-84
2021/11/29 00:27:41;;;;;;;;;;;-1.10;92.50;;;;;;4829676;29;20367;-84
2021/11/29 00:30:10;;;;;;;;;;;-1.10;92.50;;;;;;4844444;29;20256;-84
2021/11/29 00:32:38;;;;;;;;;;;-1.20;92.40;;;;;;4844194;29;19924;-84
2021/11/29 00:35:06;;;;;;;;;;;-1.20;92.50;;;;;;4845130;29;19929;-85
2021/11/29 00:37:34;;;;;;;;;;;-1.20;92.50;;;;;;4845454;29;19939;-85
2021/11/29 00:40:03;;;;;;;;;;;-1.20;92.50;;;;;;4845551;29;19924;-84
2021/11/29 00:42:30;;;;;;;;;;;-1.20;92.50;;;;;;4829972;29;19925;-84
2021/11/29 00:44:57;;;;;;;;;;;-1.30;92.40;;;;;;4829388;29;19932;-84
2021/11/29 00:47:25;;;;;;;;;;;-1.30;92.40;;;;;;4829027;29;19925;-84
2021/11/29 00:49:52;;;;;;;;;;;-1.40;92.40;;;;;;4813798;29;19925;-84
2021/11/29 00:52:19;;;;;;;;;;;-1.50;92.50;;;;;;4846387;29;19925;-85
2021/11/29 00:54:47;;;;;;;;;;;-1.50;92.50;;;;;;4846110;29;19924;-83
2021/11/29 00:57:14;;;;;;;;;;;-1.50;92.50;;;;;;4843559;29;20369;-84
2021/11/29 00:59:46;;;;;;;;;;;-1.60;92.60;;;;;;4844848;29;19931;-84
2021/11/29 01:02:13;;;;;;;;;;;-1.60;92.60;;;;;;4845982;29;19948;-85
2021/11/29 01:04:41;;;;;;;;;;;-1.60;92.60;;;;;;4844153;29;19932;-85
2021/11/29 01:07:09;;;;;;;;;;;-1.60;92.60;;;;;;4845080;29;20375;-84
2021/11/29 01:09:36;;;;;;;;;;;-1.60;92.50;;;;;;4843990;29;20275;-85
2021/11/29 01:12:04;;;;;;;;;;;-1.70;92.50;;;;;;4844507;29;19924;-85
2021/11/29 01:19:03;;;;;;;;;;;-1.80;92.50;;;;;;4844967;29;19920;-84
2021/11/29 01:21:30;;;;;;;;;;;-1.90;92.60;;;;;;4844025;29;19925;-84
2021/11/29 01:23:57;;;;;;;;;;;-1.90;92.60;;;;;;4845222;29;19995;-84
2021/11/29 01:26:25;;;;;;;;;;;-2.00;92.60;;;;;;4843759;29;19931;-84
2021/11/29 01:28:52;;;;;;;;;;;-1.90;92.60;;;;;;4844048;29;19931;-84
2021/11/29 01:31:19;;;;;;;;;;;-2.00;92.40;;;;;;4844491;29;19966;-84
2021/11/29 01:33:47;;;;;;;;;;;-2.10;92.30;;;;;;4843943;29;19944;-84
2021/11/29 01:36:14;;;;;;;;;;;-2.20;92.10;;;;;;4844489;29;20280;-84
2021/11/29 01:43:09;;;;;;;;;;;-2.40;92.40;;;;;;4850950;29;19913;-85
2021/11/29 01:45:38;;;;;;;;;;;-2.50;92.40;;;;;;4845007;29;19929;-85
2021/11/29 01:48:06;;;;;;;;;;;-2.50;92.50;;;;;;4844975;29;19924;-85
2021/11/29 01:50:34;;;;;;;;;;;-2.60;92.70;;;;;;4828198;29;20361;-85
2021/11/29 01:57:29;;;;;;;;;;;-2.60;92.80;;;;;;4851805;29;19921;-84
2021/11/29 01:59:56;;;;;;;;;;;-2.60;92.90;;;;;;4828908;29;19935;-84
2021/11/29 02:02:27;;;;;;;;;;;-2.60;92.90;;;;;;4844134;29;19931;-85
2021/11/29 02:04:58;;;;;;;;;;;-2.50;92.90;;;;;;4843851;29;19931;-85
2021/11/29 02:07:27;;;;;;;;;;;-2.60;92.80;;;;;;4843786;29;19928;-84
2021/11/29 02:09:54;;;;;;;;;;;-2.50;92.80;;;;;;4827154;29;19925;-85
2021/11/29 02:12:21;;;;;;;;;;;-2.60;92.80;;;;;;4844199;29;19925;-84
2021/11/29 02:14:49;;;;;;;;;;;-2.60;92.70;;;;;;4827397;29;19931;-83
2021/11/29 02:17:18;;;;;;;;;;;-2.50;92.70;;;;;;4842866;29;20367;-84
2021/11/29 02:19:46;;;;;;;;;;;-2.50;92.70;;;;;;4843103;29;19924;-84
2021/11/29 02:22:15;;;;;;;;;;;-2.60;92.70;;;;;;4843012;29;19924;-84
2021/11/29 02:24:42;;;;;;;;;;;-2.60;92.70;;;;;;4812512;29;19925;-84
2021/11/29 02:27:10;;;;;;;;;;;-2.60;92.70;;;;;;4826158;29;20401;-84
2021/11/29 02:29:39;;;;;;;;;;;-2.60;92.70;;;;;;4842993;29;19929;-84
2021/11/29 02:32:07;;;;;;;;;;;-2.60;92.60;;;;;;4825916;29;20407;-83
2021/11/29 02:34:34;;;;;;;;;;;-2.70;92.60;;;;;;4826671;29;19950;-83
2021/11/29 02:37:03;;;;;;;;;;;-2.70;92.60;;;;;;4842907;29;20318;-84
2021/11/29 02:39:30;;;;;;;;;;;-2.80;92.50;;;;;;4843463;29;19944;-84
2021/11/29 02:41:59;;;;;;;;;;;-2.90;92.50;;;;;;4843393;29;19924;-83
2021/11/29 02:44:27;;;;;;;;;;;-2.90;92.70;;;;;;4842853;29;19925;-83
2021/11/29 02:46:54;;;;;;;;;;;-3.00;92.70;;;;;;4843329;29;19924;-83
2021/11/29 02:49:22;;;;;;;;;;;-2.90;92.90;;;;;;4842629;29;20336;-84
2021/11/29 02:51:51;;;;;;;;;;;-2.90;93.00;;;;;;4811518;29;19924;-84
2021/11/29 02:54:20;;;;;;;;;;;-2.90;93.10;;;;;;4842456;29;19924;-84
2021/11/29 02:56:48;;;;;;;;;;;-2.90;93.00;;;;;;4842972;29;19991;-84
2021/11/29 02:59:17;;;;;;;;;;;-3.00;93.00;;;;;;4842819;29;20375;-84
2021/11/29 03:01:45;;;;;;;;;;;-3.00;92.90;;;;;;4842708;29;19925;-84
2021/11/29 03:04:13;;;;;;;;;;;-3.00;93.00;;;;;;4842739;29;19931;-84
2021/11/29 03:06:40;;;;;;;;;;;-3.00;93.00;;;;;;4842228;29;19924;-84
2021/11/29 03:09:08;;;;;;;;;;;-3.10;93.00;;;;;;4843460;29;19928;-84
2021/11/29 03:11:35;;;;;;;;;;;-3.00;93.00;;;;;;4841584;29;19924;-84
2021/11/29 03:14:03;;;;;;;;;;;-3.10;92.90;;;;;;4842523;29;19932;-84
2021/11/29 03:16:30;;;;;;;;;;;-3.10;92.90;;;;;;4842063;29;19932;-84
2021/11/29 03:18:58;;;;;;;;;;;-3.10;93.10;;;;;;4842490;29;19929;-84
2021/11/29 03:21:26;;;;;;;;;;;-3.10;93.20;;;;;;4842046;29;19925;-84
2021/11/29 03:23:55;;;;;;;;;;;-3.10;93.10;;;;;;4842521;29;19924;-84
2021/11/29 03:26:23;;;;;;;;;;;-3.10;93.10;;;;;;4826301;29;19924;-84
2021/11/29 03:28:55;;;;;;;;;;;-3.10;93.10;;;;;;4841186;29;19924;-84
2021/11/29 03:31:24;;;;;;;;;;;-3.10;93.20;;;;;;4826185;29;20385;-84
2021/11/29 03:33:56;;;;;;;;;;;-3.10;93.20;;;;;;4844824;29;20275;-85
2021/11/29 03:36:25;;;;;;;;;;;-3.10;93.20;;;;;;4845888;29;19924;-84
2021/11/29 03:38:53;;;;;;;;;;;-3.10;93.30;;;;;;4846641;29;19932;-85
2021/11/29 03:41:21;;;;;;;;;;;-3.00;93.40;;;;;;4832279;29;20257;-84
2021/11/29 03:43:48;;;;;;;;;;;-3.00;93.40;;;;;;4848745;29;19928;-83
2021/11/29 03:46:16;;;;;;;;;;;-2.90;93.40;;;;;;4831728;29;20371;-83
2021/11/29 03:48:44;;;;;;;;;;;-2.90;93.40;;;;;;4830482;29;19932;-83
2021/11/29 03:51:11;;;;;;;;;;;-2.80;93.30;;;;;;4844651;29;19940;-84
2021/11/29 03:53:38;;;;;;;;;;;-2.70;93.30;;;;;;4845507;29;20287;-83
2021/11/29 03:56:06;;;;;;;;;;;-2.70;93.20;;;;;;4845585;29;19924;-82
2021/11/29 03:58:34;;;;;;;;;;;-2.70;93.10;;;;;;4829190;29;19929;-84
2021/11/29 04:01:02;;;;;;;;;;;-2.70;93.10;;;;;;4829588;29;19924;-83
2021/11/29 04:03:30;;;;;;;;;;;-2.60;93.10;;;;;;4845331;29;19925;-83
2021/11/29 04:05:58;;;;;;;;;;;-2.60;93.10;;;;;;4845215;29;20379;-83
2021/11/29 04:08:25;;;;;;;;;;;-2.60;93.10;;;;;;4845486;29;19931;-84
2021/11/29 04:10:53;;;;;;;;;;;-2.60;93.10;;;;;;4845709;29;19932;-83
2021/11/29 04:13:20;;;;;;;;;;;-2.60;93.10;;;;;;4845505;29;19947;-83
2021/11/29 04:15:47;;;;;;;;;;;-2.60;93.00;;;;;;4829294;29;20359;-83
2021/11/29 04:18:15;;;;;;;;;;;-2.50;93.00;;;;;;4845085;29;19931;-83
2021/11/29 04:20:42;;;;;;;;;;;-2.50;93.00;;;;;;4845014;29;19924;-83
2021/11/29 04:23:10;;;;;;;;;;;-2.50;92.90;;;;;;4844890;29;19931;-83
2021/11/29 04:25:51;;;;;;;;;;;-2.50;92.90;;;;;;4829213;29;19931;-83
2021/11/29 04:28:19;;;;;;;;;;;-2.50;92.90;;;;;;4829695;29;19928;-83
2021/11/29 04:30:46;;;;;;;;;;;-2.60;92.90;;;;;;4844426;29;19924;-83
2021/11/29 04:33:14;;;;;;;;;;;-2.60;92.80;;;;;;4844811;29;19924;-83
2021/11/29 04:35:41;;;;;;;;;;;-2.60;92.80;;;;;;4844713;29;19924;-83
2021/11/29 04:38:09;;;;;;;;;;;-2.60;92.80;;;;;;4844713;29;19928;-83
2021/11/29 04:40:36;;;;;;;;;;;-2.70;92.80;;;;;;4813357;29;19924;-83
2021/11/29 04:43:03;;;;;;;;;;;-2.70;92.80;;;;;;4844832;29;19925;-83
2021/11/29 04:45:31;;;;;;;;;;;-2.80;92.80;;;;;;4828425;29;19925;-82
2021/11/29 04:47:58;;;;;;;;;;;-2.80;92.90;;;;;;4827975;29;19929;-82
2021/11/29 04:50:26;;;;;;;;;;;-2.80;92.80;;;;;;4844582;29;19941;-82
2021/11/29 04:52:53;;;;;;;;;;;-2.90;92.80;;;;;;4828119;29;19924;-82
2021/11/29 04:59:46;;;;;;;;;;;-2.90;92.80;;;;;;4850668;29;19996;-82
2021/11/29 05:02:13;;;;;;;;;;;-3.00;93.00;;;;;;4843805;29;19925;-82
2021/11/29 05:04:46;;;;;;;;;;;-3.00;93.00;;;;;;4844952;29;19931;-83
2021/11/29 05:07:14;;;;;;;;;;;-3.00;93.10;;;;;;4827708;29;19925;-83
2021/11/29 05:09:42;;;;;;;;;;;-3.00;93.10;;;;;;4844064;29;19931;-82
2021/11/29 05:12:10;;;;;;;;;;;-3.00;93.00;;;;;;4844297;29;19925;-82
2021/11/29 05:14:38;;;;;;;;;;;-3.10;92.90;;;;;;4827033;29;19933;-83
2021/11/29 05:17:05;;;;;;;;;;;-3.10;92.90;;;;;;4843913;29;19924;-82
2021/11/29 05:19:33;;;;;;;;;;;-3.10;93.00;;;;;;4845650;29;19924;-82
2021/11/29 05:22:00;;;;;;;;;;;-3.10;93.00;;;;;;4848699;29;19924;-82
2021/11/29 05:24:27;;;;;;;;;;;-3.10;93.10;;;;;;4844500;29;19925;-82
2021/11/29 05:26:55;;;;;;;;;;;-3.10;93.10;;;;;;4844138;29;19931;-82
2021/11/29 05:29:22;;;;;;;;;;;-3.10;93.00;;;;;;4844121;29;19925;-82
2021/11/29 05:31:49;;;;;;;;;;;-3.20;93.10;;;;;;4843660;29;19928;-83
2021/11/29 05:34:18;;;;;;;;;;;-3.10;93.20;;;;;;4843656;29;19950;-83
2021/11/29 05:36:45;;;;;;;;;;;-3.10;93.20;;;;;;4827812;29;19924;-82
2021/11/29 05:39:16;;;;;;;;;;;-3.10;93.20;;;;;;4843538;29;19943;-82
2021/11/29 05:41:44;;;;;;;;;;;-3.10;93.10;;;;;;4843170;29;19928;-82
2021/11/29 05:44:15;;;;;;;;;;;-3.10;93.00;;;;;;4842873;29;19932;-83
2021/11/29 05:46:43;;;;;;;;;;;-3.10;92.90;;;;;;4843429;29;19924;-83
2021/11/29 05:49:11;;;;;;;;;;;-3.10;92.90;;;;;;4842279;29;19924;-82
2021/11/29 05:51:38;;;;;;;;;;;-3.10;92.90;;;;;;4827680;29;19925;-83
2021/11/29 05:54:06;;;;;;;;;;;-3.10;92.90;;;;;;4827185;29;19924;-83
2021/11/29 05:56:33;;;;;;;;;;;-3.10;93.00;;;;;;4843227;29;19933;-82
2021/11/29 05:59:00;;;;;;;;;;;-3.10;93.00;;;;;;4843745;29;19925;-82
2021/11/29 06:01:28;;;;;;;;;;;-3.00;93.00;;;;;;4843740;29;19924;-81
2021/11/29 06:03:55;;;;;;;;;;;-3.00;93.00;;;;;;4812644;29;19925;-81
2021/11/29 06:06:23;;;;;;;;;;;-2.90;93.00;;;;;;4842230;29;19925;-82
2021/11/29 06:08:50;;;;;;;;;;;-2.90;92.90;;;;;;4844013;29;19935;-82
2021/11/29 06:11:17;;;;;;;;;;;-2.90;92.90;;;;;;4843126;29;20284;-82
2021/11/29 06:13:45;;;;;;;;;;;-2.90;92.80;;;;;;4842847;29;19924;-82
2021/11/29 06:16:12;;;;;;;;;;;-2.90;92.80;;;;;;4841838;29;19924;-81
2021/11/29 06:18:40;;;;;;;;;;;-2.90;92.90;;;;;;4826854;29;19936;-83
2021/11/29 06:21:07;;;;;;;;;;;-2.90;92.90;;;;;;4827566;29;19924;-81
2021/11/29 06:23:36;;;;;;;;;;;-2.90;92.90;;;;;;4842360;29;19928;-81
2021/11/29 06:26:03;;;;;;;;;;;-2.90;92.90;;;;;;4842994;29;20375;-82
2021/11/29 06:28:32;;;;;;;;;;;-2.90;92.90;;;;;;4843647;29;19925;-82
2021/11/29 06:30:59;;;;;;;;;;;-2.90;92.90;;;;;;4826992;29;19924;-83
2021/11/29 06:33:26;;;;;;;;;;;-2.80;92.90;;;;;;4826876;29;19931;-83
2021/11/29 06:35:56;;;;;;;;;;;-2.90;92.90;;;;;;4842156;29;20279;-83
2021/11/29 06:38:24;;;;;;;;;;;-2.90;92.90;;;;;;4843547;29;19931;-82
2021/11/29 06:40:52;;;;;;;;;;;-2.90;92.90;;;;;;4842811;29;20295;-82
2021/11/29 06:43:21;;;;;;;;;;;-2.90;92.90;;;;;;4842147;29;19924;-81
2021/11/29 06:45:49;;;;;;;;;;;-2.90;92.90;;;;;;4842479;29;19925;-82
2021/11/29 06:48:17;;;;;;;;;;;-2.90;92.90;;;;;;4843380;29;19924;-82
2021/11/29 06:50:44;;;;;;;;;;;-3.00;92.90;;;;;;4840883;29;19980;-81
2021/11/29 06:53:12;;;;;;;;;;;-3.00;92.80;;;;;;4844800;29;20271;-82
2021/11/29 06:55:41;;;;;;;;;;;-3.10;92.70;;;;;;4842736;29;20059;-82
2021/11/29 06:58:08;;;;;;;;;;;-3.10;92.80;;;;;;4843128;29;19924;-82
2021/11/29 07:00:36;;;;;;;;;;;-3.10;92.80;;;;;;4848571;29;19924;-82
2021/11/29 07:03:03;;;;;;;;;;;-3.10;92.90;;;;;;4847179;29;19931;-83
2021/11/29 07:05:31;;;;;;;;;;;-3.10;93.00;;;;;;4841839;29;19928;-80
2021/11/29 07:07:58;;;;;;;;;;;-3.10;93.10;;;;;;4843865;29;19924;-82
2021/11/29 07:10:26;;;;;;;;;;;-3.20;93.00;;;;;;4846673;29;19931;-85
2021/11/29 07:12:54;;;;;;;;;;;-3.20;93.00;;;;;;4847770;29;19925;-85
2021/11/29 07:15:23;;;;;;;;;;;-3.20;93.00;;;;;;4845287;29;20302;-86
2021/11/29 07:17:51;;;;;;;;;;;-3.30;93.00;;;;;;4815278;29;20306;-85
2021/11/29 07:20:18;;;;;;;;;;;-3.30;93.00;;;;;;4846452;29;20378;-83
2021/11/29 07:22:46;;;;;;;;;;;-3.40;93.00;;;;;;4846471;29;19924;-85
2021/11/29 07:25:13;;;;;;;;;;;-3.40;93.10;;;;;;4829916;29;19931;-85
2021/11/29 07:27:40;;;;;;;;;;;-3.40;93.00;;;;;;4846017;29;19928;-85
2021/11/29 07:30:09;;;;;;;;;;;-3.40;92.90;;;;;;4846654;29;19924;-85
2021/11/29 07:32:37;;;;;;;;;;;-3.50;92.90;;;;;;4847721;29;19924;-84
2021/11/29 07:35:05;;;;;;;;;;;-3.50;92.80;;;;;;4846974;29;19933;-85
2021/11/29 07:37:33;;;;;;;;;;;-3.60;92.90;;;;;;4847558;29;19924;-85
2021/11/29 07:40:02;;;;;;;;;;;-3.60;92.90;;;;;;4847164;29;19928;-85
2021/11/29 07:42:30;;;;;;;;;;;-3.60;92.90;;;;;;4846944;29;19924;-85
2021/11/29 07:44:58;;;;;;;;;;;-3.60;92.90;;;;;;4846525;29;20267;-85
2021/11/29 07:47:26;;;;;;;;;;;-3.60;92.90;;;;;;4844827;29;19948;-85
2021/11/29 07:49:54;;;;;;;;;;;-3.70;92.90;;;;;;4848740;29;19925;-84
2021/11/29 07:52:21;;;;;;;;;;;-3.70;93.00;;;;;;4847767;29;19924;-85
2021/11/29 07:54:49;;;;;;;;;;;-3.70;93.10;;;;;;4847168;29;20295;-85
2021/11/29 07:57:17;;;;;;;;;;;-3.70;93.20;;;;;;4845859;29;19932;-85
2021/11/29 07:59:45;;;;;;;;;;;-3.70;93.20;;;;;;4847004;29;20311;-84
2021/11/29 08:02:20;;;;;;;;;;;-3.70;93.40;;;;;;4845971;29;19932;-85
2021/11/29 08:04:49;;;;;;;;;;;-3.60;93.50;;;;;;4814884;29;19931;-84
2021/11/29 08:07:17;;;;;;;;;;;-3.50;93.50;;;;;;4829214;29;19932;-84
2021/11/29 08:09:46;;;;;;;;;;;-3.40;93.40;;;;;;4845462;29;20402;-85
2021/11/29 08:12:14;;;;;;;;;;;-3.40;93.40;;;;;;4845776;29;19940;-85
2021/11/29 08:14:41;;;;;;;;;;;-3.30;93.40;;;;;;4828785;29;19928;-85
2021/11/29 08:17:08;;;;;;;;;;;-3.20;93.30;;;;;;4845620;29;19924;-84
2021/11/29 08:19:36;;;;;;;;;;;-3.10;93.30;;;;;;4831271;29;19932;-85
2021/11/29 08:22:04;;;;;;;;;;;-3.10;93.20;;;;;;4845157;29;19924;-85
2021/11/29 08:24:31;;;;;;;;;;;-3.00;93.20;;;;;;4845767;29;19936;-85
2021/11/29 08:26:58;;;;;;;;;;;-3.00;93.20;;;;;;4846637;29;19931;-85
2021/11/29 08:29:26;;;;;;;;;;;-2.90;93.20;;;;;;4853238;29;19976;-84
2021/11/29 08:31:53;;;;;;;;;;;-2.80;93.20;;;;;;4847729;29;19924;-85
2021/11/29 08:34:21;;;;;;;;;;;-2.80;93.20;;;;;;4845345;29;19928;-85
2021/11/29 08:36:48;;;;;;;;;;;-2.70;93.20;;;;;;4845387;29;19924;-85
2021/11/29 08:39:15;;;;;;;;;;;-2.60;93.20;;;;;;4845188;29;19924;-85
2021/11/29 08:41:43;;;;;;;;;;;-2.50;93.20;;;;;;4860461;29;19931;-84
2021/11/29 08:44:11;;;;;;;;;;;-2.40;93.20;;;;;;4849179;29;19925;-84
2021/11/29 08:46:39;;;;;;;;;;;-2.30;93.20;;;;;;4844918;29;19925;-85
2021/11/29 08:49:07;;;;;;;;;;;-2.20;93.20;;;;;;4830051;29;19935;-84
2021/11/29 08:51:35;;;;;;;;;;;-2.10;93.30;;;;;;4828552;29;19947;-85
2021/11/29 08:54:02;;;;;;;;;;;-2.10;93.20;;;;;;4844615;29;19931;-85
2021/11/29 08:56:30;;;;;;;;;;;-1.90;93.30;;;;;;4846302;29;19924;-85
2021/11/29 08:58:57;;;;;;;;;;;-1.80;93.30;;;;;;4845599;29;19924;-85
2021/11/29 09:01:24;;;;;;;;;;;-1.70;93.20;;;;;;4845569;29;19925;-85
2021/11/29 09:03:52;;;;;;;;;;;-1.60;93.20;;;;;;4844110;29;19924;-84
2021/11/29 09:06:20;;;;;;;;;;;-1.50;93.20;;;;;;4845672;29;19931;-86
2021/11/29 09:08:47;;;;;;;;;;;-1.40;93.10;;;;;;4843952;29;19932;-84
2021/11/29 09:11:15;;;;;;;;;;;-1.30;93.10;;;;;;4828655;29;19924;-83
2021/11/29 09:13:43;;;;;;;;;;;-1.20;93.10;;;;;;4844810;29;19931;-82
2021/11/29 09:16:13;;;;;;;;;;;-1.10;93.00;;;;;;4844555;29;19924;-84
2021/11/29 09:18:42;;;;;;;;;;;-1.00;93.00;;;;;;4844397;29;19928;-84
2021/11/29 09:21:11;;;;;;;;;;;-0.90;93.00;;;;;;4843812;29;19932;-84
2021/11/29 09:23:41;;;;;;;;;;;-0.80;92.90;;;;;;4844442;29;19931;-84
2021/11/29 09:26:08;;;;;;;;;;;-0.70;92.90;;;;;;4828777;29;19925;-84
2021/11/29 09:28:38;;;;;;;;;;;-0.60;92.80;;;;;;4844399;29;19925;-84
2021/11/29 09:31:06;;;;;;;;;;;-0.60;92.70;;;;;;4843804;29;19925;-84
2021/11/29 09:33:34;;;;;;;;;;;-0.50;92.50;;;;;;4844203;29;19928;-85
2021/11/29 09:36:03;;;;;;;;;;;-0.40;92.40;;;;;;4843931;29;20252;-85
2021/11/29 09:38:31;;;;;;;;;;;-0.40;92.40;;;;;;4827767;29;19932;-85
2021/11/29 09:40:59;;;;;;;;;;;-0.30;92.30;;;;;;4844023;29;19924;-85
2021/11/29 09:43:26;;;;;;;;;;;-0.20;92.30;;;;;;4844789;29;19924;-85
2021/11/29 09:45:54;;;;;;;;;;;-0.20;92.30;;;;;;4843348;29;19925;-85
2021/11/29 09:48:22;;;;;;;;;;;-0.20;92.20;;;;;;4844136;29;19928;-84
2021/11/29 09:55:21;;;;;;;;;;;-0.20;91.90;;;;;;4850632;29;19913;-84
2021/11/29 09:57:49;;;;;;;;;;;-0.20;91.90;;;;;;4844518;29;19924;-84
2021/11/29 10:00:28;;;;;;;;;;;-0.20;92.00;;;;;;4827352;29;19932;-84
2021/11/29 10:02:56;;;;;;;;;;;-0.10;92.00;;;;;;4828673;29;19925;-84
2021/11/29 10:05:24;;;;;;;;;;;-0.10;91.90;;;;;;4845103;29;19924;-83
2021/11/29 10:07:53;;;;;;;;;;;0.00;91.90;;;;;;4837764;29;19928;-81
2021/11/29 10:10:26;;;;;;;;;;;0.00;91.80;;;;;;4844940;29;19925;-82
2021/11/29 10:12:58;;;;;;;;;;;0.10;91.80;;;;;;4844639;29;19924;-82
2021/11/29 10:15:30;;;;;;;;;;;0.20;91.80;;;;;;4812224;29;19924;-82
2021/11/29 10:18:07;;;;;;;;;;;0.30;91.70;;;;;;4826812;29;19924;-82
2021/11/29 10:20:44;;;;;;;;;;;0.50;91.60;;;;;;4828462;29;19935;-82
2021/11/29 10:23:14;;;;;;;;;;;0.70;91.40;;;;;;4859418;29;19929;-82
2021/11/29 10:25:43;;;;;;;;;;;0.80;91.20;;;;;;4829253;29;19935;-82
2021/11/29 10:28:40;;;;;;;;;;;1.00;91.00;;;;;;4844632;29;19947;-82
2021/11/29 10:31:24;;;;;;;;;;;1.00;90.60;;;;;;4822216;29;19928;-83
2021/11/29 10:33:54;;;;;;;;;;;1.20;90.60;;;;;;4843911;29;19996;-83
2021/11/29 10:36:23;;;;;;;;;;;1.30;90.40;;;;;;4843393;29;19928;-84
2021/11/29 10:38:54;;;;;;;;;;;1.50;90.40;;;;;;4826712;29;20378;-84
2021/11/29 10:41:30;;;;;;;;;;;1.60;90.30;;;;;;4844210;29;19924;-83
2021/11/29 10:43:59;;;;;;;;;;;1.80;90.10;;;;;;4844614;29;19944;-81
2021/11/29 10:46:28;;;;;;;;;;;1.80;89.80;;;;;;4842825;29;20271;-82
2021/11/29 10:48:58;;;;;;;;;;;2.00;89.60;;;;;;4843746;29;19924;-82
2021/11/29 10:51:26;;;;;;;;;;;2.00;89.50;;;;;;4827429;29;19924;-82
2021/11/29 10:53:56;;;;;;;;;;;2.10;89.40;;;;;;4844170;29;19924;-79
2021/11/29 10:56:24;;;;;;;;;;;2.20;89.40;;;;;;4841849;29;19924;-80
2021/11/29 10:58:53;;;;;;;;;;;2.20;89.30;;;;;;4843027;29;19928;-80
2021/11/29 11:01:32;;;;;;;;;;;2.30;89.10;;;;;;4842701;29;19924;-80
2021/11/29 11:04:01;;;;;;;;;;;2.30;88.80;;;;;;4842128;29;19935;-80
2021/11/29 11:06:28;;;;;;;;;;;2.30;88.50;;;;;;4826129;29;19925;-80
2021/11/29 11:08:56;;;;;;;;;;;2.30;88.40;;;;;;4840535;29;19940;-80
2021/11/29 11:11:28;;;;;;;;;;;2.30;88.40;;;;;;4842590;29;19931;-80
2021/11/29 11:14:07;;;;;;;;;;;2.20;88.40;;;;;;4843173;29;19936;-80
2021/11/29 11:16:46;;;;;;;;;;;2.20;88.60;;;;;;4842528;29;19928;-80
2021/11/29 11:19:22;;;;;;;;;;;2.30;88.60;;;;;;4842658;29;19924;-81
2021/11/29 11:21:49;;;;;;;;;;;2.30;88.50;;;;;;4842528;29;20371;-80
2021/11/29 11:24:17;;;;;;;;;;;2.40;88.40;;;;;;4841802;29;19925;-81
2021/11/29 11:26:45;;;;;;;;;;;2.40;88.20;;;;;;4842463;29;19924;-80
2021/11/29 11:29:14;;;;;;;;;;;2.40;88.20;;;;;;4841994;29;20391;-80
2021/11/29 11:31:41;;;;;;;;;;;2.40;88.30;;;;;;4842442;29;20279;-81
2021/11/29 11:34:09;;;;;;;;;;;2.50;88.10;;;;;;4842941;29;19947;-81
2021/11/29 11:36:37;;;;;;;;;;;2.50;88.10;;;;;;4842214;29;19925;-81
2021/11/29 11:39:05;;;;;;;;;;;2.50;88.10;;;;;;4825732;29;19924;-81
2021/11/29 11:41:33;;;;;;;;;;;2.60;88.10;;;;;;4842384;29;19947;-81
2021/11/29 11:44:03;;;;;;;;;;;2.60;87.80;;;;;;4843792;29;19931;-81
2021/11/29 11:46:30;;;;;;;;;;;2.60;88.00;;;;;;4843279;29;19924;-80
2021/11/29 11:48:58;;;;;;;;;;;2.70;88.00;;;;;;4844496;29;19924;-80
2021/11/29 11:51:26;;;;;;;;;;;2.70;88.00;;;;;;4827121;29;20409;-81
2021/11/29 11:53:53;;;;;;;;;;;2.90;88.00;;;;;;4844525;29;19928;-80
2021/11/29 11:56:21;;;;;;;;;;;3.00;87.90;;;;;;4845099;29;19932;-81
2021/11/29 11:58:55;;;;;;;;;;;3.10;87.80;;;;;;4829992;29;20432;-82
2021/11/29 12:01:24;;;;;;;;;;;3.20;87.60;;;;;;4846333;29;19979;-82
2021/11/29 12:03:52;;;;;;;;;;;3.30;87.40;;;;;;4860443;29;19924;-82
2021/11/29 12:06:20;;;;;;;;;;;3.30;87.30;;;;;;4832159;29;19931;-82
2021/11/29 12:08:57;;;;;;;;;;;3.30;87.10;;;;;;4845927;29;19935;-82
2021/11/29 12:11:33;;;;;;;;;;;3.30;87.10;;;;;;4829112;29;20383;-83
2021/11/29 12:14:12;;;;;;;;;;;3.30;87.10;;;;;;4845461;29;20375;-82
2021/11/29 12:16:42;;;;;;;;;;;3.20;87.10;;;;;;4845391;29;19924;-82
2021/11/29 12:19:14;;;;;;;;;;;3.10;87.20;;;;;;4844717;29;19925;-83
2021/11/29 12:21:42;;;;;;;;;;;3.00;87.30;;;;;;4846075;29;19925;-83
2021/11/29 12:24:13;;;;;;;;;;;3.00;87.40;;;;;;4846145;29;19924;-83
2021/11/29 12:26:47;;;;;;;;;;;2.90;87.60;;;;;;4848168;29;19924;-84
2021/11/29 12:29:21;;;;;;;;;;;3.00;87.60;;;;;;4846830;29;19928;-83
2021/11/29 12:32:06;;;;;;;;;;;3.10;87.10;;;;;;4829978;29;19932;-83
2021/11/29 12:34:52;;;;;;;;;;;3.30;87.20;;;;;;4845270;29;20035;-83
2021/11/29 12:37:24;;;;;;;;;;;3.40;87.00;;;;;;4846141;29;19924;-83
2021/11/29 12:40:04;;;;;;;;;;;3.60;86.90;;;;;;4845579;29;19924;-83
2021/11/29 12:42:34;;;;;;;;;;;3.60;86.80;;;;;;4828982;29;19931;-84
2021/11/29 12:45:05;;;;;;;;;;;3.70;86.80;;;;;;4845831;29;20379;-85
2021/11/29 12:47:46;;;;;;;;;;;3.80;86.70;;;;;;4846900;29;19925;-84
2021/11/29 12:50:32;;;;;;;;;;;3.80;86.80;;;;;;4846584;29;19929;-83
2021/11/29 12:53:08;;;;;;;;;;;4.00;86.80;;;;;;4846256;29;19928;-84
2021/11/29 12:55:36;;;;;;;;;;;4.00;86.60;;;;;;4846860;29;19996;-83
2021/11/29 12:58:07;;;;;;;;;;;4.10;86.20;;;;;;4846638;29;19932;-86
2021/11/29 13:00:36;;;;;;;;;;;4.10;86.10;;;;;;4831486;29;20370;-84
2021/11/29 13:03:05;;;;;;;;;;;4.10;86.10;;;;;;4815882;29;19925;-85
2021/11/29 13:05:34;;;;;;;;;;;4.10;85.90;;;;;;4847768;29;19924;-84
2021/11/29 13:08:05;;;;;;;;;;;4.00;85.80;;;;;;4847099;29;20268;-84
2021/11/29 13:10:50;;;;;;;;;;;3.90;85.80;;;;;;4829896;29;19947;-84
2021/11/29 13:13:21;;;;;;;;;;;3.80;86.00;;;;;;4848334;29;19925;-85
2021/11/29 13:15:49;;;;;;;;;;;3.70;86.00;;;;;;4846017;29;19924;-84
2021/11/29 13:18:40;;;;;;;;;;;3.60;86.00;;;;;;4834462;29;19924;-85
2021/11/29 13:21:08;;;;;;;;;;;3.50;86.00;;;;;;4835329;29;19928;-85
2021/11/29 13:23:43;;;;;;;;;;;3.40;85.80;;;;;;4814531;29;19925;-85
2021/11/29 13:26:10;;;;;;;;;;;3.30;85.90;;;;;;4811694;29;19931;-84
2021/11/29 13:28:38;;;;;;;;;;;3.30;85.90;;;;;;4828690;29;19925;-84
2021/11/29 13:31:05;;;;;;;;;;;3.40;85.80;;;;;;4815058;29;19932;-85
2021/11/29 13:33:37;;;;;;;;;;;3.30;85.80;;;;;;4841417;29;19931;-86
2021/11/29 13:36:05;;;;;;;;;;;3.30;85.90;;;;;;4840593;29;19924;-85
2021/11/29 13:38:35;;;;;;;;;;;3.40;85.90;;;;;;4837796;29;19931;-84
2021/11/29 13:41:04;;;;;;;;;;;3.40;85.80;;;;;;4837546;29;19932;-85
2021/11/29 13:43:31;;;;;;;;;;;3.40;85.90;;;;;;4838698;29;19924;-85
2021/11/29 13:46:09;;;;;;;;;;;3.30;85.90;;;;;;4838440;29;19925;-86
2021/11/29 13:48:36;;;;;;;;;;;3.30;86.00;;;;;;4831787;29;19925;-85
2021/11/29 13:51:04;;;;;;;;;;;3.30;86.20;;;;;;4838540;29;19941;-86
2021/11/29 13:53:33;;;;;;;;;;;3.30;86.30;;;;;;4832922;29;19944;-87
2021/11/29 13:56:00;;;;;;;;;;;3.30;86.30;;;;;;4833463;29;19924;-86
2021/11/29 13:58:30;;;;;;;;;;;3.30;86.40;;;;;;4833693;29;19941;-85
2021/11/29 14:01:00;;;;;;;;;;;3.20;86.40;;;;;;4829005;29;20391;-87
2021/11/29 14:03:32;;;;;;;;;;;3.10;86.50;;;;;;4828742;29;19925;-86
2021/11/29 14:06:04;;;;;;;;;;;3.10;86.70;;;;;;4812693;29;19932;-84
2021/11/29 14:08:36;;;;;;;;;;;3.10;86.80;;;;;;4812736;29;20372;-83
2021/11/29 14:11:05;;;;;;;;;;;3.10;86.80;;;;;;4811039;29;19925;-82
2021/11/29 14:13:35;;;;;;;;;;;3.10;86.80;;;;;;4826770;29;19932;-83
2021/11/29 14:16:05;;;;;;;;;;;3.00;86.80;;;;;;4825853;29;19948;-83
2021/11/29 14:18:32;;;;;;;;;;;3.00;86.90;;;;;;4836472;29;20298;-82
2021/11/29 14:21:02;;;;;;;;;;;2.90;86.90;;;;;;4844279;29;19925;-83
2021/11/29 14:23:37;;;;;;;;;;;2.90;87.00;;;;;;4847629;29;19924;-83
2021/11/29 14:26:05;;;;;;;;;;;2.80;87.20;;;;;;4847241;29;19928;-82
2021/11/29 14:28:33;;;;;;;;;;;2.80;87.30;;;;;;4844576;29;19931;-82
2021/11/29 14:31:01;;;;;;;;;;;2.80;87.30;;;;;;4845928;29;19925;-84
2021/11/29 14:33:36;;;;;;;;;;;2.70;87.40;;;;;;4845157;29;19924;-84
2021/11/29 14:36:22;;;;;;;;;;;2.70;87.40;;;;;;4842988;29;19924;-83
2021/11/29 14:38:50;;;;;;;;;;;2.60;87.50;;;;;;4846900;29;19925;-83
2021/11/29 14:41:17;;;;;;;;;;;2.60;87.70;;;;;;4844948;29;19925;-84
2021/11/29 14:43:49;;;;;;;;;;;2.50;87.80;;;;;;4845124;29;19929;-81
2021/11/29 14:46:26;;;;;;;;;;;2.40;87.90;;;;;;4843642;29;19925;-82
2021/11/29 14:49:13;;;;;;;;;;;2.30;88.10;;;;;;4843767;29;19924;-81
2021/11/29 14:51:41;;;;;;;;;;;2.30;88.30;;;;;;4843301;29;19924;-81
2021/11/29 14:54:09;;;;;;;;;;;2.30;88.50;;;;;;4843481;29;19924;-82